Here is the Quick Look data you requested

The Data originates at the National Weather Service, and is made available here by the UAlbany Department of Atmospheric and Environmental Sciences

Surface Observations

KADW 180156Z AUTO 25003KT 10SM RA BKN003 OVC021 01/M01 A2995 RMK AO2 CIG
 003V021 BKN V FEW PRESRR SLPNO P0002 T00121006 $=
KADW 180206Z AUTO 00000KT 10SM -RA SCT003 OVC021 01/M01 A2994 RMK AO2 CIG
 003V021 SLP148 $=
KADW 180211Z AUTO 00000KT 10SM -RA BKN003 OVC021 01/M01 A2994 RMK AO2 CIG
 003V021 BKN V SCT SLP148 $=
KADW 180206Z AUTO 00000KT 10SM -RA SCT003 OVC021 01/M01 A2994 RMK AO2 CIG
 003V021 SLP148 $=
KADW 180211Z AUTO 00000KT 10SM -RA BKN003 OVC021 01/M01 A2994 RMK AO2 CIG
 003V021 BKN V SCT SLP148 $=
KADW 180226Z AUTO 00000KT 10SM -RA SCT003 OVC017 01/00 A2995 RMK AO2 CIG
 003V017 SLP151 $=
KADW 180246Z AUTO 00000KT 10SM -RA BKN003 OVC016 01/00 A2995 RMK AO2 CIG
 003V016 BKN V SCT SLP151 $=
KADW 180256Z AUTO 00000KT 7SM RA BKN003 OVC016 01/00 A2996 RMK AO2 SLP155 P0005
 60007 T00130000 55007 $=
KADW 180356Z AUTO 15008KT 10SM -RA OVC003 01/00 A2991 RMK AO2 SLP138 P0007
 T00110004 $=
KADW 180421Z AUTO 16006KT 10SM -RA SCT003 BKN007 OVC021 01/01 A2990 RMK AO2 CIG
 003V007 SLP134 $=
KADW 180431Z AUTO 14008KT 10SM -RA BKN003 BKN007 OVC018 01/01 A2988 RMK AO2 CIG
 003V007 BKN003 V SCT PRESFR SLP128 $=
KADW 180456Z AUTO 17010KT 10SM -RA BKN003 02/01 A2986 RMK AO2 SLP121 P0004
 T00160012 400321040 $=
KADW 180551Z AUTO 21008KT 10SM -RA OVC005 03/02 A2987 RMK AO2
 RAE20SNB20E34RAB34 CIG 003V005 SLP124 $=
KADW 180556Z AUTO 21008KT 10SM -RA OVC005 03/02 A2987 RMK AO2
 RAE20SNB20E34RAB34 CIG 003V005 SLP124 P0003 60021 T00260023 10026 20005 55031
 $=
KADW 180551Z AUTO 21008KT 10SM -RA OVC005 03/02 A2987 RMK AO2
 RAE20SNB20E34RAB34 CIG 003V005 SLP124 $=
KADW 180656Z AUTO 17009KT 10SM -RA OVC005 03/03 A2979 RMK AO2
 RAE54UPB54E55RAB55 PRESFR SLP097 P0005 T00290025 $=
KADW 180706Z AUTO 18011KT 10SM -RA OVC004 03/03 A2980 RMK AO2
 RAE0656UPB0656E00RAB00 SLP100 $=
KADW 180731Z AUTO 19012KT 10SM -RA OVC003 03/03 A2978 RMK AO2
 RAE0656UPB0656E00RAB00E23UPB23E27RAB27 SLP093 $=
KADW 180756Z AUTO 20011KT 10SM RA OVC003 03/03 A2976 RMK AO2
 RAE0656UPB0656E00RAB00E23UPB23E27RAB27 SLP087 P0008 T00340030 $=
KADW 180826Z AUTO 20008KT 10SM -RA OVC004 04/03 A2975 RMK AO2 SLP083 $=
KADW 180856Z AUTO 18006KT 10SM -RA OVC004 04/03 A2972 RMK AO2 SLP073 P0004
 60017 T00360032 57045 $=
KADW 180956Z AUTO 28007KT 10SM -RA OVC004 04/03 A2978 RMK AO2 SLP093 P0004
 T00360032 $=
KADW 181006Z AUTO 28007KT 10SM -RA OVC003 04/03 A2978 RMK AO2 SLP093 $=
KADW 181016Z AUTO 28004KT 10SM -RA OVC004 04/03 A2978 RMK AO2 SLP093 $=
KADW 181031Z AUTO 29007KT 10SM -RA BKN005 OVC010 04/03 A2980 RMK AO2 PRESRR
 SLP100 $=
KADW 181016Z AUTO 28004KT 10SM -RA OVC004 04/03 A2978 RMK AO2 SLP093 $=
KADW 181031Z AUTO 29007KT 10SM -RA BKN005 OVC010 04/03 A2980 RMK AO2 PRESRR
 SLP100 $=
KADW 181016Z AUTO 28004KT 10SM -RA OVC004 04/03 A2978 RMK AO2 SLP093 $=
KADW 181031Z AUTO 29007KT 10SM -RA BKN005 OVC010 04/03 A2980 RMK AO2 PRESRR
 SLP100 $=
KADW 181051Z AUTO 00000KT 10SM -RA SCT006 BKN012 OVC030 04/03 A2979 RMK AO2 CIG
 005V012 BKN V OVC CIG 011 RWY01L SLP097 $=
KADW 181056Z AUTO 00000KT 10SM -RA SCT006 BKN012 OVC030 04/03 A2980 RMK AO2 CIG
 005V012 CIG 011 RWY01L SLP100 P0002 T00350031 $=
KADW 181103Z AUTO 26003KT 10SM SCT006 SCT015 BKN030 OVC035 04/03 A2980 RMK AO2
 RAE02DZB02E03 SLP100 $=
KADW 181156Z AUTO 25005KT 10SM FEW031 BKN170 04/03 A2983 RMK AO2 RAE02DZB02E03
 SLP111 P0000 60023 70044 T00350029 10037 20026 52038 $=
KADW 181256Z AUTO 23003KT 10SM SCT170 BKN200 03/03 A2984 RMK AO2 SLP114
 T00340030 $=
KADW 181356Z AUTO 28006KT 10SM BKN220 06/04 A2989 RMK AO2 SLP130 T00570040 $=
KADW 181456Z AUTO 29011G18KT 10SM CLR 06/03 A2991 RMK AO2 SLP137 T00620025
 52025 $=
KADW 181556Z AUTO 29013G20KT 10SM CLR 07/02 A2995 RMK AO2 SLP151 T00690016 $=
KADW 181656Z AUTO 29013G23KT 10SM SCT044 08/01 A2997 RMK AO2 PK WND 30026/08
 SLP157 T00820007 $=
KADW 181756Z AUTO 29016G24KT 10SM BKN048 09/M01 A2998 RMK AO2 PK WND 30026/18
 SLP161 T00861007 10089 20032 52023 $=
KADW 181856Z AUTO 30021G26KT 10SM FEW048 08/M02 A3000 RMK AO2 PK WND 30030/47
 SLP168 T00821024 $=
KADW 181956Z AUTO 30021G32KT 10SM CLR 08/M03 A3002 RMK AO2 PK WND 30035/47
 SLP174 T00771032 $=
KADW 182056Z AUTO 30024G34KT 10SM CLR 07/M03 A3006 RMK AO2 SLP188 T00691034
 52027 $=
KADW 182156Z AUTO 30022G34KT 10SM CLR 06/M05 A3011 RMK AO2 PK WND 31042/39
 SLP205 T00611052 $=
KADW 182256Z AUTO 30015G25KT 10SM FEW050 05/M05 A3018 RMK AO2 PK WND 31034/2159
 PRESRR SLP229 T00521052 $=
KADW 182356Z AUTO 31009G25KT 10SM BKN065 04/M05 A3024 RMK AO2 PK WND 30029/29
 SLP249 T00431055 10087 20043 52059 $=
KADW 190056Z AUTO 31014G21KT 10SM BKN050 04/M05 A3026 RMK AO2 SLP256 T00381052
 $=
KADW 190156Z AUTO 30011G21KT 10SM OVC047 04/M05 A3029 RMK AO2 SLP266 T00351054
 $=
KADW 190256Z AUTO 31013G20KT 10SM BKN047 03/M06 A3033 RMK AO2 SLP280 T00311061
 52029 $=
KADW 190356Z AUTO 33010G15KT 10SM FEW050 02/M07 A3037 RMK AO2 PK WND 32026/0257
 SLP293 T00231068 $=
KADW 190456Z AUTO 31012G20KT 10SM CLR 02/M07 A3039 RMK AO2 PK WND 33026/26
 SLP300 T00171071 400890017 $=
KADW 190556Z AUTO 32011G19KT 10SM CLR 01/M07 A3042 RMK AO2 SLP310 T00081068
 10043 20008 52030 $=
KADW 190656Z AUTO 31013KT 10SM CLR 00/M07 A3045 RMK AO2 SLP321 T00041074 $=
KADW 190756Z AUTO 32011G19KT 10SM CLR 00/M07 A3046 RMK AO2 SLP324 T10031071 $=